createdAt,value
2022-11-30T00:01:22.328Z,101628.25
2022-11-30T00:03:54.182Z,101630.00
2022-11-30T00:06:23.624Z,101626.41
2022-11-30T00:08:56.609Z,101619.47
2022-11-30T00:11:25.698Z,101611.75
2022-11-30T00:13:53.054Z,101616.84
2022-11-30T00:16:20.029Z,101626.50
2022-11-30T00:18:46.824Z,101621.16
2022-11-30T00:21:15.472Z,101621.25
2022-11-30T00:23:44.678Z,101618.63
2022-11-30T00:26:14.515Z,101627.28
2022-11-30T00:28:44.013Z,101629.84
2022-11-30T00:31:14.297Z,101629.94
2022-11-30T00:33:41.476Z,101629.03
2022-11-30T00:36:14.005Z,101619.47
2022-11-30T00:38:40.901Z,101630.84
2022-11-30T00:41:08.312Z,101620.38
2022-11-30T00:43:35.033Z,101622.09
2022-11-30T00:46:02.040Z,101628.06
2022-11-30T00:48:29.211Z,101622.09
2022-11-30T00:50:56.041Z,101613.25
2022-11-30T00:53:22.878Z,101614.97
2022-11-30T00:55:50.196Z,101612.28
2022-11-30T00:58:17.379Z,101611.34
2022-11-30T01:00:44.847Z,101617.56
2022-11-30T01:03:12.501Z,101611.56
2022-11-30T01:05:39.587Z,101604.53
2022-11-30T01:08:09.174Z,101614.13
2022-11-30T01:10:37.448Z,101616.53
2022-11-30T01:13:04.447Z,101625.31
2022-11-30T01:15:32.007Z,101613.84
2022-11-30T01:18:01.593Z,101622.75
2022-11-30T01:20:28.559Z,101619.09
2022-11-30T01:22:56.127Z,101626.16
2022-11-30T01:25:23.595Z,101620.91
2022-11-30T01:27:51.219Z,101610.44
2022-11-30T01:30:19.046Z,101623.19
2022-11-30T01:32:45.861Z,101617.41
2022-11-30T01:35:12.989Z,101623.41
2022-11-30T01:37:39.928Z,101622.41
2022-11-30T01:40:07.358Z,101626.03
2022-11-30T01:42:34.227Z,101617.25
2022-11-30T01:45:02.879Z,101623.28
2022-11-30T01:47:41.217Z,101615.44
2022-11-30T01:50:32.980Z,101617.25
2022-11-30T01:52:59.912Z,101612.81
2022-11-30T01:55:42.996Z,101622.34
2022-11-30T01:58:14.161Z,101626.81
2022-11-30T02:00:45.815Z,101622.47
2022-11-30T02:03:36.879Z,101624.25
2022-11-30T02:06:03.782Z,101623.34
2022-11-30T02:08:31.929Z,101632.97
2022-11-30T02:11:03.363Z,101631.28
2022-11-30T02:13:45.250Z,101632.25
2022-11-30T02:16:17.741Z,101637.53
2022-11-30T02:18:58.475Z,101640.81
2022-11-30T02:21:29.651Z,101638.06
2022-11-30T02:24:21.076Z,101633.91
2022-11-30T02:27:18.900Z,101629.56
2022-11-30T02:30:03.099Z,101639.06
2022-11-30T02:32:36.048Z,101637.97
2022-11-30T02:35:05.855Z,101642.41
2022-11-30T02:37:35.287Z,101632.72
2022-11-30T02:40:06.967Z,101631.78
2022-11-30T02:42:33.905Z,101637.13
2022-11-30T02:45:00.710Z,101639.63
2022-11-30T02:47:59.332Z,101641.47
2022-11-30T02:50:30.812Z,101636.06
2022-11-30T02:52:57.877Z,101629.91
2022-11-30T02:55:24.805Z,101636.78
2022-11-30T02:57:51.604Z,101637.63
2022-11-30T03:00:18.879Z,101641.13
2022-11-30T03:02:45.684Z,101640.25
2022-11-30T03:05:12.581Z,101640.97
2022-11-30T03:07:39.579Z,101649.75
2022-11-30T03:10:07.077Z,101640.88
2022-11-30T03:12:34.161Z,101646.06
2022-11-30T03:15:01.006Z,101657.44
2022-11-30T03:17:27.899Z,101651.31
2022-11-30T03:19:54.693Z,101652.09
2022-11-30T03:22:21.597Z,101653.69
2022-11-30T03:24:48.541Z,101659.66
2022-11-30T03:27:15.945Z,101667.41
2022-11-30T03:29:42.709Z,101656.09
2022-11-30T03:32:09.696Z,101659.59
2022-11-30T03:34:36.423Z,101660.44
2022-11-30T03:37:03.560Z,101657.88
2022-11-30T03:39:30.587Z,101668.25
2022-11-30T03:41:57.417Z,101668.13
2022-11-30T03:44:24.167Z,101670.91
2022-11-30T03:46:51.001Z,101677.75
2022-11-30T03:49:17.783Z,101676.91
2022-11-30T03:51:44.605Z,101672.59
2022-11-30T03:54:11.330Z,101681.09
2022-11-30T03:56:38.098Z,101676.78
2022-11-30T03:59:04.917Z,101679.47
2022-11-30T04:01:31.739Z,101682.81
2022-11-30T04:03:58.589Z,101681.09
2022-11-30T04:06:25.480Z,101688.09
2022-11-30T04:08:52.262Z,101688.69
2022-11-30T04:11:19.041Z,101681.69
2022-11-30T04:13:46.085Z,101678.56
2022-11-30T04:16:12.965Z,101686.97
2022-11-30T04:18:40.148Z,101682.63
2022-11-30T04:21:08.184Z,101694.00
2022-11-30T04:23:37.319Z,101680.84
2022-11-30T04:26:05.781Z,101691.31
2022-11-30T04:28:33.174Z,101699.19
2022-11-30T04:31:01.098Z,101703.59
2022-11-30T04:33:28.572Z,101705.44
2022-11-30T04:36:01.197Z,101702.88
2022-11-30T04:38:28.699Z,101710.19
2022-11-30T04:40:56.249Z,101705.97
2022-11-30T04:43:23.324Z,101712.13
2022-11-30T04:45:50.213Z,101703.59
2022-11-30T04:48:18.054Z,101714.22
2022-11-30T04:50:45.225Z,101710.81
2022-11-30T04:53:12.295Z,101705.69
2022-11-30T04:55:39.412Z,101706.88
2022-11-30T04:58:07.936Z,101716.38
2022-11-30T05:00:35.874Z,101719.00
2022-11-30T05:03:02.916Z,101719.97
2022-11-30T05:05:29.744Z,101724.34
2022-11-30T05:07:58.532Z,101725.19
2022-11-30T05:10:27.198Z,101720.88
2022-11-30T05:12:54.114Z,101721.81
2022-11-30T05:15:21.324Z,101733.13
2022-11-30T05:17:48.136Z,101729.59
2022-11-30T05:20:15.094Z,101727.03
2022-11-30T05:22:41.942Z,101727.03
2022-11-30T05:25:09.514Z,101732.28
2022-11-30T05:27:37.116Z,101726.09
2022-11-30T05:30:05.167Z,101727.94
2022-11-30T05:32:31.978Z,101736.53
2022-11-30T05:34:58.955Z,101732.28
2022-11-30T05:37:26.110Z,101732.22
2022-11-30T05:39:52.864Z,101734.84
2022-11-30T05:42:19.634Z,101737.47
2022-11-30T05:44:48.290Z,101737.47
2022-11-30T05:47:16.271Z,101740.94
2022-11-30T05:49:43.246Z,101742.66
2022-11-30T05:52:10.486Z,101731.44
2022-11-30T05:54:37.243Z,101737.47
2022-11-30T05:57:05.445Z,101738.31
2022-11-30T05:59:32.317Z,101738.31
2022-11-30T06:01:59.454Z,101738.31
2022-11-30T06:04:26.433Z,101747.00
2022-11-30T06:06:55.922Z,101737.41
2022-11-30T06:09:23.684Z,101740.81
2022-11-30T06:11:50.962Z,101746.94
2022-11-30T06:14:18.009Z,101743.44
2022-11-30T06:16:45.102Z,101752.97
2022-11-30T06:19:11.943Z,101745.94
2022-11-30T06:21:38.722Z,101748.56
2022-11-30T06:24:05.777Z,101758.09
2022-11-30T06:26:32.592Z,101761.50
2022-11-30T06:28:59.304Z,101755.38
2022-11-30T06:31:26.201Z,101758.88
2022-11-30T06:33:57.325Z,101758.97
2022-11-30T06:36:24.499Z,101755.38
2022-11-30T06:38:52.029Z,101753.59
2022-11-30T06:41:19.307Z,101759.81
2022-11-30T06:43:46.182Z,101753.66
2022-11-30T06:46:13.414Z,101754.53
2022-11-30T06:48:40.792Z,101750.19
2022-11-30T06:51:08.932Z,101757.13
2022-11-30T06:53:36.575Z,101748.34
2022-11-30T06:56:10.300Z,101759.69
2022-11-30T06:58:38.936Z,101757.03
2022-11-30T07:01:10.729Z,101758.72
2022-11-30T07:03:38.425Z,101763.03
2022-11-30T07:06:11.227Z,101758.81
2022-11-30T07:08:39.152Z,101769.25
2022-11-30T07:11:06.871Z,101771.88
2022-11-30T07:13:34.029Z,101763.16
2022-11-30T07:16:05.527Z,101765.84
2022-11-30T07:18:32.965Z,101770.19
2022-11-30T07:21:04.414Z,101772.81
2022-11-30T07:23:55.912Z,101777.22
2022-11-30T07:26:24.485Z,101785.19
2022-11-30T07:28:55.311Z,101786.13
2022-11-30T07:31:26.658Z,101786.97
2022-11-30T07:33:53.628Z,101791.31
2022-11-30T07:36:22.311Z,101799.34
2022-11-30T07:38:49.804Z,101802.84
2022-11-30T07:41:16.596Z,101809.00
2022-11-30T07:43:45.985Z,101807.34
2022-11-30T07:46:14.449Z,101812.56
2022-11-30T07:48:41.843Z,101818.81
2022-11-30T07:51:14.360Z,101827.56
2022-11-30T07:53:41.723Z,101830.13
2022-11-30T07:56:11.661Z,101842.34
2022-11-30T07:58:40.153Z,101841.41
2022-11-30T08:01:09.890Z,101848.31
2022-11-30T08:03:37.632Z,101855.19
2022-11-30T08:06:07.457Z,101864.75
2022-11-30T08:08:37.776Z,101861.25
2022-11-30T08:11:05.563Z,101873.41
2022-11-30T08:13:32.707Z,101874.16
2022-11-30T08:16:07.687Z,101884.56
2022-11-30T08:18:35.246Z,101874.16
2022-11-30T08:21:04.601Z,101871.56
2022-11-30T08:23:33.635Z,101877.44
2022-11-30T08:26:31.146Z,101884.56
2022-11-30T08:28:59.253Z,101883.63
2022-11-30T08:31:29.412Z,101887.91
2022-11-30T08:34:01.902Z,101898.28
2022-11-30T08:36:29.821Z,101891.28
2022-11-30T08:39:01.173Z,101900.84
2022-11-30T08:41:28.296Z,101911.34
2022-11-30T08:43:55.581Z,101915.47
2022-11-30T08:49:26.781Z,101926.63
2022-11-30T08:57:33.714Z,101936.75
2022-11-30T09:00:00.588Z,101940.19
2022-11-30T09:02:27.514Z,101946.16
2022-11-30T09:04:54.281Z,101948.78
2022-11-30T09:07:21.246Z,101952.13
2022-11-30T09:09:48.103Z,101952.06
2022-11-30T09:12:14.874Z,101955.44
2022-11-30T09:14:41.868Z,101950.06
2022-11-30T09:17:08.621Z,101949.91
2022-11-30T09:19:35.465Z,101961.19
2022-11-30T09:22:02.193Z,101965.44
2022-11-30T09:24:28.973Z,101965.31
2022-11-30T09:26:57.164Z,101974.81
2022-11-30T09:29:24.512Z,101965.16
2022-11-30T09:31:51.391Z,101970.25
2022-11-30T09:34:18.252Z,101968.28
2022-11-30T09:36:45.009Z,101973.34
2022-11-30T09:39:13.160Z,101989.72
2022-11-30T09:42:01.290Z,101992.38
2022-11-30T09:44:40.152Z,101990.44
2022-11-30T09:47:32.472Z,101990.44
2022-11-30T09:50:12.712Z,101996.34
2022-11-30T09:52:48.692Z,101995.28
2022-11-30T09:55:23.766Z,101996.13
2022-11-30T09:57:55.322Z,102003.72
2022-11-30T10:00:24.275Z,102005.28
2022-11-30T10:02:53.419Z,101992.03
2022-11-30T10:05:23.798Z,102009.56
2022-11-30T10:08:12.534Z,102008.34
2022-11-30T10:10:51.109Z,102019.81
2022-11-30T10:13:48.583Z,102019.56
2022-11-30T10:16:36.017Z,102006.22
2022-11-30T10:19:21.190Z,101996.38
2022-11-30T10:22:13.649Z,102002.75
2022-11-30T10:25:23.540Z,101999.00
2022-11-30T10:27:51.882Z,101999.66
2022-11-30T10:30:24.167Z,101999.34
2022-11-30T10:32:56.319Z,101997.44
2022-11-30T10:35:34.940Z,102007.66
2022-11-30T10:38:12.471Z,102001.25
2022-11-30T10:40:47.757Z,102009.63
2022-11-30T10:43:26.611Z,102010.81
2022-11-30T10:45:53.652Z,102014.75
2022-11-30T10:48:42.859Z,102013.84
2022-11-30T10:51:12.152Z,102008.00
2022-11-30T10:53:39.042Z,102015.13
2022-11-30T10:56:11.236Z,102019.38
2022-11-30T10:58:50.324Z,102018.09
2022-11-30T11:01:37.986Z,102019.94
2022-11-30T11:04:18.511Z,102006.44
2022-11-30T11:06:55.695Z,102010.91
2022-11-30T11:09:28.502Z,102010.13
2022-11-30T11:12:00.140Z,102001.53
2022-11-30T11:14:29.730Z,102010.78
2022-11-30T11:17:04.531Z,102009.00
2022-11-30T11:19:40.433Z,102013.97
2022-11-30T11:22:27.383Z,102008.00
2022-11-30T11:25:09.675Z,102002.75
2022-11-30T11:27:39.914Z,102002.44
2022-11-30T11:30:44.037Z,102008.34
2022-11-30T11:33:13.836Z,102006.28
2022-11-30T11:35:49.922Z,102006.88
2022-11-30T11:38:46.909Z,102016.75
2022-11-30T11:41:24.460Z,102006.16
2022-11-30T11:44:21.387Z,102002.69
2022-11-30T11:46:55.829Z,102001.53
2022-11-30T11:49:42.871Z,101995.50
2022-11-30T11:52:09.601Z,101988.38
2022-11-30T11:54:48.861Z,101986.03
2022-11-30T11:57:19.767Z,101991.78
2022-11-30T12:00:05.627Z,101982.41
2022-11-30T12:02:48.180Z,101976.72
2022-11-30T12:05:17.848Z,101993.75
2022-11-30T12:07:59.260Z,101977.06
2022-11-30T12:10:52.139Z,101992.16
2022-11-30T12:13:24.523Z,101981.44
2022-11-30T12:16:20.724Z,101982.00
2022-11-30T12:18:50.476Z,101982.72
2022-11-30T12:21:31.630Z,101989.13
2022-11-30T12:24:35.923Z,101985.41
2022-11-30T12:27:20.683Z,101997.66
2022-11-30T12:30:15.979Z,101991.31
2022-11-30T12:33:04.759Z,101993.03
2022-11-30T12:35:40.644Z,101996.22
2022-11-30T12:38:32.205Z,101999.56
2022-11-30T12:41:17.741Z,102008.53
2022-11-30T12:43:54.309Z,102006.06
2022-11-30T12:46:41.437Z,102011.34
2022-11-30T12:49:14.418Z,102011.50
2022-11-30T12:51:51.391Z,102011.50
2022-11-30T12:54:42.313Z,102008.38
2022-11-30T12:57:15.185Z,102013.63
2022-11-30T12:59:41.859Z,102022.09
2022-11-30T13:02:41.109Z,102025.31
2022-11-30T13:05:12.866Z,102027.75
2022-11-30T13:07:57.055Z,102021.59
2022-11-30T13:10:37.072Z,102020.91
2022-11-30T13:13:04.868Z,102032.06
2022-11-30T13:15:34.360Z,102027.81
2022-11-30T13:18:03.259Z,102035.50
2022-11-30T13:20:51.205Z,102033.28
2022-11-30T13:23:47.158Z,102039.56
2022-11-30T13:26:42.551Z,102038.47
2022-11-30T13:29:28.049Z,102053.50
2022-11-30T13:32:17.713Z,102047.94
2022-11-30T13:34:54.646Z,102047.72
2022-11-30T13:37:27.214Z,102052.22
2022-11-30T13:39:58.499Z,102048.81
2022-11-30T13:42:36.021Z,102059.19
2022-11-30T13:45:11.874Z,102055.53
2022-11-30T13:47:49.795Z,102056.38
2022-11-30T13:50:32.813Z,102052.06
2022-11-30T13:53:34.125Z,102056.56
2022-11-30T13:56:34.440Z,102063.38
2022-11-30T13:59:34.761Z,102052.41
2022-11-30T14:02:36.539Z,102061.19
2022-11-30T14:05:18.940Z,102063.59
2022-11-30T14:07:52.992Z,102063.97
2022-11-30T14:10:29.478Z,102065.44
2022-11-30T14:13:23.572Z,102065.44
2022-11-30T14:15:50.358Z,102065.59
2022-11-30T14:18:19.888Z,102075.28
2022-11-30T14:21:38.433Z,102071.34
2022-11-30T14:24:19.664Z,102079.41
2022-11-30T14:26:50.132Z,102086.06
2022-11-30T14:29:32.622Z,102077.53
2022-11-30T14:32:12.430Z,102094.41
2022-11-30T14:34:44.465Z,102090.28
2022-11-30T14:37:28.003Z,102094.19
2022-11-30T14:39:58.209Z,102106.47
2022-11-30T14:42:30.049Z,102110.31
2022-11-30T14:44:58.665Z,102103.44
2022-11-30T14:47:29.141Z,102111.44
2022-11-30T14:50:02.034Z,102121.25
2022-11-30T14:52:44.222Z,102111.88
2022-11-30T14:55:30.150Z,102118.97
2022-11-30T14:58:07.628Z,102120.03
2022-11-30T15:00:43.722Z,102132.53
2022-11-30T15:03:29.376Z,102137.06
2022-11-30T15:06:00.591Z,102126.72
2022-11-30T15:08:37.976Z,102141.00
2022-11-30T15:11:09.577Z,102142.84
2022-11-30T15:13:47.358Z,102148.31
2022-11-30T15:16:53.209Z,102143.31
2022-11-30T15:19:29.280Z,102152.22
2022-11-30T15:21:57.924Z,102147.03
2022-11-30T15:24:25.851Z,102155.00
2022-11-30T15:27:10.742Z,102153.50
2022-11-30T15:29:42.943Z,102145.91
2022-11-30T15:32:18.898Z,102162.38
2022-11-30T15:34:54.938Z,102159.81
2022-11-30T15:37:35.581Z,102172.13
2022-11-30T15:40:05.891Z,102177.31
2022-11-30T15:42:41.474Z,102183.53
2022-11-30T15:45:33.204Z,102183.59
2022-11-30T15:48:01.563Z,102186.16
2022-11-30T15:50:31.086Z,102198.44
2022-11-30T15:53:24.681Z,102200.34
2022-11-30T15:55:55.641Z,102208.19
2022-11-30T15:58:28.626Z,102204.72
2022-11-30T16:01:00.511Z,102224.91
2022-11-30T16:03:27.392Z,102224.91
2022-11-30T16:05:58.080Z,102236.25
2022-11-30T16:08:24.925Z,102229.31
2022-11-30T16:10:52.011Z,102236.41
2022-11-30T16:13:22.026Z,102239.09
2022-11-30T16:15:50.941Z,102233.09
2022-11-30T16:18:19.401Z,102220.19
2022-11-30T16:20:52.975Z,102237.56
2022-11-30T16:23:20.727Z,102242.00
2022-11-30T16:25:49.603Z,102234.38
2022-11-30T16:28:18.391Z,102246.59
2022-11-30T16:30:46.200Z,102253.66
2022-11-30T16:33:19.377Z,102252.03
2022-11-30T16:35:56.159Z,102258.25
2022-11-30T16:38:24.192Z,102259.25
2022-11-30T16:40:54.081Z,102246.38
2022-11-30T16:43:21.008Z,102264.53
2022-11-30T16:45:50.444Z,102265.44
2022-11-30T16:48:17.853Z,102272.53
2022-11-30T16:50:45.222Z,102276.06
2022-11-30T16:53:17.266Z,102268.28
2022-11-30T16:55:44.131Z,102276.16
2022-11-30T16:58:11.056Z,102265.69
2022-11-30T17:00:40.302Z,102267.50
2022-11-30T17:03:09.858Z,102276.31
2022-11-30T17:05:37.326Z,102262.38
2022-11-30T17:08:04.357Z,102259.88
2022-11-30T17:10:31.371Z,102252.94
2022-11-30T17:12:58.143Z,102245.28
2022-11-30T17:15:25.263Z,102229.72
2022-11-30T17:17:52.035Z,102221.16
2022-11-30T17:20:19.233Z,102221.41
2022-11-30T17:22:46.067Z,102221.63
2022-11-30T17:25:18.495Z,102235.03
2022-11-30T17:27:45.738Z,102257.03
2022-11-30T17:30:15.246Z,102260.59
2022-11-30T17:32:42.102Z,102259.56
2022-11-30T17:35:09.326Z,102264.72
2022-11-30T17:37:36.172Z,102270.69
2022-11-30T17:40:04.229Z,102278.47
2022-11-30T17:42:31.392Z,102287.13
2022-11-30T17:44:58.266Z,102301.97
2022-11-30T17:47:25.657Z,102303.69
2022-11-30T17:49:52.458Z,102296.59
2022-11-30T17:52:19.191Z,102292.16
2022-11-30T17:54:46.133Z,102316.66
2022-11-30T17:57:13.157Z,102319.22
2022-11-30T17:59:39.995Z,102314.81
2022-11-30T18:02:06.930Z,102299.13
2022-11-30T18:04:33.708Z,102299.06
2022-11-30T18:07:00.546Z,102311.34
2022-11-30T18:09:27.886Z,102325.31
2022-11-30T18:11:54.774Z,102316.56
2022-11-30T18:14:21.592Z,102324.47
2022-11-30T18:16:48.404Z,102328.81
2022-11-30T18:19:15.656Z,102339.31
2022-11-30T18:21:45.969Z,102342.81
2022-11-30T18:24:13.132Z,102345.47
2022-11-30T18:26:40.104Z,102351.56
2022-11-30T18:29:07.863Z,102362.94
2022-11-30T18:31:36.427Z,102364.75
2022-11-30T18:34:05.945Z,102370.84
2022-11-30T18:36:34.127Z,102369.16
2022-11-30T18:39:00.945Z,102375.34
2022-11-30T18:41:30.282Z,102366.59
2022-11-30T18:43:57.919Z,102363.22
2022-11-30T18:46:26.170Z,102382.34
2022-11-30T18:48:54.712Z,102382.34
2022-11-30T18:51:27.352Z,102390.22
2022-11-30T18:54:05.593Z,102388.47
2022-11-30T18:56:35.077Z,102382.28
2022-11-30T18:59:12.360Z,102383.22
2022-11-30T19:01:39.533Z,102375.72
2022-11-30T19:04:08.678Z,102397.28
2022-11-30T19:06:36.964Z,102400.75
2022-11-30T19:09:09.931Z,102404.28
2022-11-30T19:11:37.780Z,102404.22
2022-11-30T19:14:04.605Z,102415.66
2022-11-30T19:16:34.610Z,102426.16
2022-11-30T19:19:04.477Z,102433.16
2022-11-30T19:21:31.359Z,102436.75
2022-11-30T19:23:58.454Z,102437.56
2022-11-30T19:26:28.004Z,102446.28
2022-11-30T19:28:56.426Z,102466.44
2022-11-30T19:31:24.908Z,102466.44
2022-11-30T19:33:54.254Z,102459.44
2022-11-30T19:36:23.504Z,102459.44
2022-11-30T19:38:51.665Z,102456.81
2022-11-30T19:41:20.131Z,102454.19
2022-11-30T19:43:54.743Z,102450.78
2022-11-30T19:46:24.157Z,102454.34
2022-11-30T19:48:56.879Z,102461.41
2022-11-30T19:51:23.958Z,102465.72
2022-11-30T19:53:55.721Z,102461.41
2022-11-30T19:56:23.612Z,102464.97
2022-11-30T19:58:50.837Z,102447.75
2022-11-30T20:01:23.029Z,102458.91
2022-11-30T20:03:56.242Z,102459.00
2022-11-30T20:06:32.054Z,102452.03
2022-11-30T20:08:58.863Z,102452.00
2022-11-30T20:11:25.849Z,102462.53
2022-11-30T20:13:52.717Z,102451.34
2022-11-30T20:16:21.064Z,102455.69
2022-11-30T20:19:02.587Z,102455.78
2022-11-30T20:21:31.210Z,102456.66
2022-11-30T20:24:01.208Z,102458.25
2022-11-30T20:26:31.420Z,102454.75
2022-11-30T20:29:00.224Z,102449.50
2022-11-30T20:31:28.128Z,102444.28
2022-11-30T20:33:55.289Z,102443.41
2022-11-30T20:36:22.152Z,102436.56
2022-11-30T20:38:49.158Z,102435.00
2022-11-30T20:41:20.902Z,102432.50
2022-11-30T20:43:48.586Z,102418.91
2022-11-30T20:46:16.375Z,102427.84
2022-11-30T20:48:43.242Z,102429.88
2022-11-30T20:51:30.275Z,102433.56
2022-11-30T20:53:59.631Z,102438.19
2022-11-30T20:56:26.430Z,102441.69
2022-11-30T20:58:53.188Z,102438.31
2022-11-30T21:01:22.462Z,102442.78
2022-11-30T21:03:49.593Z,102449.94
2022-11-30T21:06:16.594Z,102452.63
2022-11-30T21:08:43.527Z,102452.78
2022-11-30T21:11:13.847Z,102466.03
2022-11-30T21:13:42.958Z,102464.47
2022-11-30T21:16:10.647Z,102465.41
2022-11-30T21:18:39.202Z,102462.06
2022-11-30T21:21:08.554Z,102470.97
2022-11-30T21:23:35.358Z,102476.25
2022-11-30T21:26:07.671Z,102462.41
2022-11-30T21:28:38.314Z,102474.47
2022-11-30T21:31:06.101Z,102476.09
2022-11-30T21:33:33.601Z,102480.13
2022-11-30T21:36:04.277Z,102478.94
2022-11-30T21:38:31.014Z,102497.03
2022-11-30T21:41:00.199Z,102485.53
2022-11-30T21:43:28.504Z,102493.19
2022-11-30T21:46:03.806Z,102493.00
2022-11-30T21:48:33.355Z,102507.66
2022-11-30T21:51:02.033Z,102501.50
2022-11-30T21:53:29.797Z,102495.22
2022-11-30T21:56:02.287Z,102496.91
2022-11-30T21:58:31.178Z,102498.63
2022-11-30T22:00:59.491Z,102498.53
2022-11-30T22:03:26.579Z,102502.84
2022-11-30T22:06:04.613Z,102508.94
2022-11-30T22:08:32.092Z,102514.09
2022-11-30T22:11:10.281Z,102515.88
2022-11-30T22:13:37.928Z,102517.63
2022-11-30T22:16:11.504Z,102517.63
2022-11-30T22:18:39.047Z,102517.56
2022-11-30T22:21:17.162Z,102515.84
2022-11-30T22:23:46.955Z,102513.22
2022-11-30T22:26:25.092Z,102528.16
2022-11-30T22:29:08.174Z,102527.34
2022-11-30T22:31:38.395Z,102530.81
2022-11-30T22:34:06.091Z,102536.06
2022-11-30T22:36:35.409Z,102539.56
2022-11-30T22:39:11.197Z,102542.19
2022-11-30T22:41:39.781Z,102543.94
2022-11-30T22:44:07.049Z,102533.44
2022-11-30T22:46:36.034Z,102542.19
2022-11-30T22:49:05.940Z,102537.84
2022-11-30T22:51:34.648Z,102543.13
2022-11-30T22:54:02.487Z,102517.31
2022-11-30T22:56:32.090Z,102530.97
2022-11-30T22:59:00.945Z,102543.09
2022-11-30T23:01:49.743Z,102549.38
2022-11-30T23:04:19.441Z,102553.66
2022-11-30T23:06:48.411Z,102548.41
2022-11-30T23:09:21.509Z,102541.47
2022-11-30T23:11:48.742Z,102551.06
2022-11-30T23:14:16.737Z,102552.00
2022-11-30T23:16:45.213Z,102555.47
2022-11-30T23:19:13.052Z,102550.22
2022-11-30T23:21:42.286Z,102547.66
2022-11-30T23:24:16.382Z,102552.03
2022-11-30T23:26:43.779Z,102548.50
2022-11-30T23:29:12.719Z,102560.72
2022-11-30T23:31:41.301Z,102548.78
2022-11-30T23:34:11.706Z,102552.97
2022-11-30T23:36:38.776Z,102549.47
2022-11-30T23:39:14.023Z,102563.47
2022-11-30T23:41:41.385Z,102565.25
2022-11-30T23:44:09.357Z,102560.97
2022-11-30T23:46:36.588Z,102572.31
2022-11-30T23:49:03.731Z,102567.06
2022-11-30T23:51:30.494Z,102568.81
2022-11-30T23:53:57.334Z,102568.91
2022-11-30T23:56:24.748Z,102560.13
2022-11-30T23:58:52.209Z,102561.97
